Timeline UpdatesTrip UpdatesNews PostsPvt PostsTravel TipsAdmin PostsConv PostsFollowed PostsChat RequestsBlog PostsPNR Posts

Disclaimer
Search
 
 
Thu Apr 24, 2014 01:39:50 ISTHomeTrainsΣChainsAtlasPNRForumGalleryNewsFAQTripsMembersLoginFeedback
No Recent News for this Train
Other Trains in the News **new
Latest...
⇐ Return Journey: Train# 59207

59208/Okha - Bhavnagar Passenger

Feb 22 2014 (11:46PM)
Change Departure Station:
Change Arrival Station:
Post a Train Travel TipPost a Train Travel Tip **new
Post a Comment/Question/Picture/VideoPost a Comment/Question/Picture/Video
Pantry/Catering
✕ NO Pantry Car
✕ NO Catering
RSA - Rake Sharing
59267/59268 Bhavnagar-Palitana Passenger
Rake/Coach Composition
Eng.. GEN..GEN..GEN..S2..S1..GEN..GEN..GEN..SLR
Loco
RTM WDM 3A.
News    PNR    Forum    Time-Table    Availability    Fare Chart    Map    Arr/Dep History    Trips    Gallery    ΣChains    X/O    Timeline    
Travel Time: 11h 13m    41 halts    Distance: 370 km    Avg Speed: 32 km/hr
Type: Passenger
Zone: WR/Western
Departs @ 18:37 (Avg 19m late)
Platform# 1
SMTWTFS
Jamnagar/JAM 
Arrives @ 05:50 +1 night (Avg 1m early)
Platform# 1
SMTWTFS
Bhavnagar Terminus/BVC 

41 halts. 48 intermediate Stations between Jamnagar and Bhavnagar Terminus

Show ALL intermediate Stations  Show Old Time-Table

#CodeStation NameX/OArrivesAvgDepartsAvgHaltPFDay#KmSpeedElevZoneAddress
1OKHAOkha (3)  -14:45+111-167.0635mWROkha, Gujarat
2MTHPMithapur  14:54+314:55+31m--1-157.5253mWRJamnagar, Gujarat
3BMRNBhimranaX  15:02+215:03+91m--1-154.6356mWRBhimrana, Gujarat
4VVAVarvala  15:22+915:23+91m--1-143.46014mWRJamnagar, Gujarat
5DWKDwarka (2)X  15:28+915:30+162m21-138.41614mWRDwarka, Gujarat
6GRJAGorinja  15:45+1215:46+131m--1-134.5605mWRKhambhalia-Dwarka (SH 6), Gujarat
7OKDOkha MadhiX  16:04+716:05+111m--1-116.5285mWRNH 8E, Gujarat
8KRGAKuranga  16:23+516:24+51m--1-108.27012mWRJamnagar, Gujarat
9BHTABhatiya  16:34+216:35+61m--1-96.64634mWRNational Highway 8E, Gujarat
10BPKABhopalka  16:48+716:49+71m--1-86.67146mWRJamnagar, Gujarat
11BHTLBhatel  17:01+1217:02+121m--1-72.55935mWRJamnagar, Gujarat
12VQDViramdad  17:13+1017:14+101m--1-61.74949mWRKhambhalia-Dwarka (SH 6), Gujarat
13KMBLKhambhalia  17:23+1017:25+122m11-54.35849mWRKhambhalia, Gujarat
14SYQSinhanX  17:33+1417:34+141m--1-46.65650mWRSH 6, Gujarat
15MDPRModpur  17:44+1417:45+151m--1-37.25447mWRKhambhalia-Lalpur, Gujarat
16KNLSKanalus JunctionX  17:57+1617:58+181m--1-26.53936mWRJamnagar, Gujarat
17PPLIPipli  18:06+1718:07+181m--1-21.35230mWRJamnagar, Gujarat
18LKBLLakhabawal  18:18+1718:19+181m--1-11.85521mWRJamnagar, Gujarat
19JAM»Jamnagar (2)»  18:32+1818:37+195m110.04314mWRJamnagar, Gujarat
20HAPAHapa (3)  18:49+1918:54+225m318.75416mWRJamnagar, Gujarat
21ALBAlia Bada  19:05+2419:06+241m--118.65927mWRJamnagar, Gujarat
22WTJJam Wanthali  19:18+2419:19+251m--130.33852mWRRanuja Village Rd, Gujarat
23JALDJaliya DevaniX  19:31+2419:33+252m--137.93450mWRRanuja Village Rd, Gujarat
24HMHadmatiya Junction  19:47+1919:48+231m--145.84870mWRHadmatiya Junction Railway Station, Gujarat
25CXChanolX  19:57+2219:59+232m--152.93289mWRState Highway 25, Gujarat
26PDHPadadhari  20:12+1820:13+211m--159.86071mWRPaddhari, Gujarat
27KHDIKhanderi  20:27+2020:28+211m--173.730111mWRRajkot, Gujarat
28RJTRajkot Junction (5)X  20:50+1621:00+2610m1184.634128mWRRajkot, Gujarat
29KHCKhoranaX  21:19+2621:20+291m--195.374131mWRState Highway 113, Gujarat
30SDDSindhawadarX  21:35+3421:36+371m--1113.838105mWRSindhavadar, Gujarat
31WKRCWankaner City  21:52+3521:53+351m--1124.01380mWRWankaner, Gujarat
32WKRWankaner Junction (4)  22:02+3422:04+472m--1125.93287mWRWankaner, Gujarat
33DLDaladi  22:27+4122:28+431m--1138.342115mWRDaladi, Gujarat
34THANThan Junction (3)  22:48+4022:50+442m11152.548138mWRThangadh, Gujarat
35VDVagdiyaX  23:03+4223:04+451m--1162.848149mWRState Highway 113, Gujarat
36RARamparda  23:12+4523:13+501m--1169.261141mWRSurendranagar, Gujarat
37MOLMuli RoadX  23:22+5123:24+582m11178.437108mWRSurendranagar, Gujarat
38DXRDigsar  23:37+5323:38+581m--1186.421100mWRState Highway 17, Gujarat
39CJRChamaraj  23:57+4000:29+2332m--1193.1986mWRState Highway 17, Gujarat
40SUNRSurendranagar Junction (4)  01:15+301:55+040m32200.22272mWRSurendra Nagar, Gujarat
41SRGTSurendranagar Gate (1)X  02:01+602:02+61m12202.34271mWRSurendranagar, Gujarat
42JVNJorawarnagar Junction (1)  02:06+1202:07+121m12205.13669mWRSurendra Nagar, Gujarat
43WCWadhwan City  02:13+1402:14+151m--2208.77667mWRSurendranagar, Gujarat
44LMLimbdi (1)  02:30+1602:31+171m12229.06051mWRLimbdi, Gujarat
45CDAChuda  02:41+1702:42+171m--2239.07063mWRState Highway 38, Gujarat
46RURRanpur  02:56+1602:57+171m--2255.36561mWRRanpur, Gujarat
47KDIKundli  03:07+1803:08+181m--2266.15786mWRState Highway 38, Gujarat
48BTDBotad Junction (5)  03:20+1903:22+222m--2277.56696mWRBotad, Gujarat
49LTDLathidad  03:32+2503:33+251m--2288.55668mWRTajpar Rd, Gujarat
50NGANingala Junction  03:41+2503:42+261m--2296.06457mWRState Highway 117, Gujarat
51ALMRAlampur  03:49+2603:50+261m--2303.55059mWRState Highway 31, Gujarat
52UJUjalvav  03:58+2603:59+261m--2310.25164mWRState Highway 31, Gujarat
53DLJDhola Junction  04:11+2504:12+251m--2320.48337mWRDhola, Gujarat
54SOASanosra  04:20+2604:21+261m--2331.45136mWRState Highway 25, Gujarat
55BJUDBajud  04:26+2604:27+261m--2335.76137mWRState Highway 31, Gujarat
56SGDSongadh (1)  04:33+2604:34+261m12341.83040mWRBhavnagar, Gujarat
57SOJNSihor Gujarat  04:49+2104:50+211m--2349.34542mWRShihor, Gujarat
58KDMRKodiyar Mandir  04:57+2104:58+211m--2354.62292mWRSH 21, Gujarat
59VTJVartej  05:12+1505:13+171m--2359.82924mWRBhavnagar, Gujarat
60BVPBhavnagar Para  05:28+905:29+91m--2367.0813mWRBhavnagar, Gujarat
61BVC•Bhavnagar Terminus (2)•  05:50-1-12369.8-11mWRBhavnagar, Gujarat
Scroll to Top
Scroll to Bottom